Time;durP1;ratioP1;P1;durP2;ratioP2;P2;SDS_P1;SDS_P2;PMS_P1;PMS_P2;Temp;Humidity;BMP_temperature;BMP_pressure;BME280_temperature;BME280_humidity;BME280_pressure;Samples;Min_cycle;Max_cycle;Signal;HPM_P1;HPM_P2
2022/04/16 00:02:01;;;;;;;14.65;9.32;;;9.80;77.60;;;;;;5048753;28;20044;-67
2022/04/16 00:04:28;;;;;;;13.98;9.73;;;9.80;77.70;;;;;;5051935;28;20192;-67
2022/04/16 00:06:55;;;;;;;13.15;10.05;;;9.90;77.70;;;;;;5046413;28;20045;-67
2022/04/16 00:09:20;;;;;;;14.70;9.85;;;9.90;77.60;;;;;;5049617;28;20264;-67
2022/04/16 00:11:46;;;;;;;14.45;9.48;;;9.90;77.70;;;;;;5032556;28;20418;-66
2022/04/16 00:14:12;;;;;;;15.13;9.30;;;9.90;77.60;;;;;;5047074;28;20090;-66
2022/04/16 00:16:44;;;;;;;14.52;10.55;;;9.80;77.60;;;;;;5049359;28;20131;-67
2022/04/16 00:19:11;;;;;;;15.57;9.98;;;9.90;77.60;;;;;;5048759;28;20068;-66
2022/04/16 00:21:37;;;;;;;13.93;10.40;;;9.90;77.60;;;;;;5049696;28;20036;-68
2022/04/16 00:24:03;;;;;;;12.45;9.48;;;9.90;77.60;;;;;;5049709;28;20037;-67
2022/04/16 00:26:29;;;;;;;15.13;11.07;;;9.90;77.60;;;;;;5049810;28;20047;-67
2022/04/16 00:28:54;;;;;;;14.07;9.77;;;10.00;77.60;;;;;;5049306;28;20333;-67
2022/04/16 00:31:21;;;;;;;14.30;9.80;;;9.90;77.50;;;;;;5049813;28;20447;-67
2022/04/16 00:33:47;;;;;;;11.70;9.43;;;9.90;77.50;;;;;;5050568;28;20044;-68
2022/04/16 00:36:16;;;;;;;18.17;9.70;;;10.00;77.60;;;;;;5047068;28;20055;-67
2022/04/16 00:38:42;;;;;;;13.52;9.65;;;10.00;77.70;;;;;;5031678;28;20076;-67
2022/04/16 00:41:08;;;;;;;13.60;10.07;;;10.00;77.60;;;;;;5046898;28;20191;-67
2022/04/16 00:43:34;;;;;;;14.40;9.93;;;10.10;77.60;;;;;;5049075;28;20541;-67
2022/04/16 00:45:59;;;;;;;12.27;9.52;;;10.00;77.60;;;;;;5048908;28;20468;-67
2022/04/16 00:48:26;;;;;;;11.40;9.38;;;10.10;77.70;;;;;;5045252;28;20426;-66
2022/04/16 00:50:53;;;;;;;10.77;9.00;;;10.00;77.60;;;;;;5048731;28;20041;-66
2022/04/16 00:53:20;;;;;;;17.98;9.95;;;10.10;77.60;;;;;;5048616;28;20053;-67
2022/04/16 00:55:45;;;;;;;11.73;10.23;;;10.10;77.60;;;;;;5046485;28;20532;-66
2022/04/16 00:58:11;;;;;;;12.80;9.93;;;10.10;77.60;;;;;;5049679;28;20077;-67
2022/04/16 01:00:37;;;;;;;14.07;9.77;;;10.10;77.50;;;;;;5049150;28;20530;-66
2022/04/16 01:03:04;;;;;;;13.90;10.07;;;10.10;77.50;;;;;;5049531;28;20037;-66
2022/04/16 01:05:30;;;;;;;13.85;9.65;;;10.10;77.50;;;;;;5044635;28;20124;-66
2022/04/16 01:08:02;;;;;;;13.98;9.90;;;10.10;77.60;;;;;;5047484;28;20124;-66
2022/04/16 01:10:32;;;;;;;12.43;10.13;;;10.10;77.70;;;;;;5047063;28;20082;-66
2022/04/16 01:13:00;;;;;;;16.38;10.82;;;10.10;77.60;;;;;;5043205;28;20080;-67
2022/04/16 01:15:28;;;;;;;13.95;9.88;;;10.10;77.60;;;;;;5047895;28;20486;-67
2022/04/16 01:17:54;;;;;;;16.05;10.40;;;10.00;77.60;;;;;;5046406;28;20493;-66
2022/04/16 01:20:20;;;;;;;16.95;10.48;;;10.00;77.70;;;;;;5047242;28;20047;-66
2022/04/16 01:22:48;;;;;;;14.90;10.00;;;10.00;77.70;;;;;;5046667;28;20044;-66
2022/04/16 01:25:14;;;;;;;12.50;10.15;;;10.00;77.70;;;;;;5048164;28;20063;-66
2022/04/16 01:27:43;;;;;;;12.93;9.88;;;10.00;77.80;;;;;;5053351;28;20041;-67
2022/04/16 01:30:11;;;;;;;11.90;9.73;;;10.00;77.80;;;;;;5047161;28;20051;-67
2022/04/16 01:32:37;;;;;;;12.95;10.38;;;10.00;77.90;;;;;;5044197;28;20083;-66
2022/04/16 01:35:05;;;;;;;12.20;9.98;;;10.00;77.90;;;;;;5048296;28;20106;-67
2022/04/16 01:37:34;;;;;;;13.73;10.50;;;10.00;77.90;;;;;;5046773;28;20045;-66
2022/04/16 01:40:04;;;;;;;15.05;9.93;;;10.00;78.00;;;;;;5048124;28;20098;-67
2022/04/16 01:42:32;;;;;;;14.27;10.30;;;10.00;78.10;;;;;;5047745;28;20736;-66
2022/04/16 01:44:59;;;;;;;14.05;10.20;;;9.90;78.00;;;;;;5048289;28;20045;-66
2022/04/16 01:47:24;;;;;;;13.00;10.05;;;10.00;78.10;;;;;;5047718;28;20041;-67
2022/04/16 01:49:51;;;;;;;12.70;10.38;;;10.00;78.10;;;;;;5048708;28;20059;-67
2022/04/16 01:52:16;;;;;;;16.02;10.52;;;10.00;78.10;;;;;;5045154;28;20138;-67
2022/04/16 01:54:42;;;;;;;14.05;10.90;;;10.00;78.20;;;;;;5045726;28;20117;-67
2022/04/16 01:57:07;;;;;;;14.30;11.23;;;10.00;78.30;;;;;;5046919;28;20797;-67
2022/04/16 01:59:33;;;;;;;13.98;11.55;;;10.00;78.30;;;;;;5047481;28;20048;-67
2022/04/16 02:01:59;;;;;;;15.98;11.50;;;9.90;78.30;;;;;;5047577;28;20048;-66
2022/04/16 02:04:26;;;;;;;15.85;10.90;;;9.90;78.40;;;;;;5048392;28;20052;-67
2022/04/16 02:06:52;;;;;;;15.10;11.75;;;10.00;78.50;;;;;;5046706;28;20052;-66
2022/04/16 02:09:18;;;;;;;21.95;12.05;;;10.00;78.60;;;;;;5047902;28;20045;-67
2022/04/16 02:11:44;;;;;;;19.48;12.45;;;10.00;78.70;;;;;;5042820;28;20110;-67
2022/04/16 02:14:10;;;;;;;14.95;11.60;;;10.00;78.70;;;;;;5048144;28;20127;-67
2022/04/16 02:16:35;;;;;;;20.00;12.23;;;10.00;78.70;;;;;;5046048;28;20083;-67
2022/04/16 02:19:01;;;;;;;16.50;12.40;;;10.00;78.70;;;;;;5048016;28;20045;-67
2022/04/16 02:21:27;;;;;;;17.13;12.60;;;10.00;78.80;;;;;;5040153;28;20398;-67
2022/04/16 02:23:54;;;;;;;17.83;13.00;;;10.00;78.90;;;;;;5028392;28;20490;-67
2022/04/16 02:26:22;;;;;;;19.02;13.73;;;10.10;79.00;;;;;;5034362;28;20072;-67
2022/04/16 02:28:48;;;;;;;18.15;13.55;;;10.10;79.00;;;;;;5045407;28;20041;-67
2022/04/16 02:31:14;;;;;;;20.88;14.02;;;10.10;79.10;;;;;;5041139;28;20044;-68
2022/04/16 02:33:40;;;;;;;22.48;13.98;;;10.00;79.10;;;;;;5048478;28;20037;-67
2022/04/16 02:36:07;;;;;;;21.42;14.50;;;10.00;79.20;;;;;;5047193;28;20397;-67
2022/04/16 02:38:36;;;;;;;18.83;13.55;;;10.00;79.20;;;;;;5044937;28;20476;-67
2022/04/16 02:41:01;;;;;;;19.35;14.98;;;9.90;79.40;;;;;;5043451;28;20038;-67
2022/04/16 02:43:27;;;;;;;18.45;14.38;;;9.90;79.50;;;;;;5048481;28;20429;-67
2022/04/16 02:48:37;;;;;;;22.48;15.73;;;9.90;79.80;;;;;;5048332;28;20045;-67
2022/04/16 02:51:02;;;;;;;18.48;14.75;;;9.90;79.80;;;;;;5043723;28;20037;-67
2022/04/16 02:53:29;;;;;;;18.67;15.02;;;9.90;79.90;;;;;;5036958;28;20462;-67
2022/04/16 02:55:55;;;;;;;25.00;16.90;;;9.90;80.00;;;;;;5039024;28;20318;-67
2022/04/16 02:58:21;;;;;;;18.65;16.10;;;9.90;80.10;;;;;;5047632;28;20117;-67
2022/04/16 03:00:48;;;;;;;20.13;16.15;;;9.90;80.10;;;;;;5043837;28;20040;-68
2022/04/16 03:03:14;;;;;;;20.52;16.25;;;9.90;80.10;;;;;;5029216;28;20108;-67
2022/04/16 03:05:40;;;;;;;20.48;15.98;;;9.80;80.10;;;;;;5044672;28;20041;-67
2022/04/16 03:08:07;;;;;;;19.25;17.10;;;9.80;80.10;;;;;;5029947;28;20117;-67
2022/04/16 03:10:33;;;;;;;20.40;16.15;;;9.80;80.20;;;;;;5031894;28;20110;-67
2022/04/16 03:12:59;;;;;;;24.38;17.20;;;9.90;80.20;;;;;;5029950;28;20080;-67
2022/04/16 03:18:10;;;;;;;26.00;17.70;;;9.80;80.40;;;;;;5028692;28;20049;-68
2022/04/16 03:20:40;;;;;;;20.55;16.55;;;9.80;80.40;;;;;;5031046;28;20041;-68
2022/04/16 03:23:06;;;;;;;23.75;17.65;;;9.80;80.50;;;;;;5048454;28;20071;-67
2022/04/16 03:25:32;;;;;;;20.33;16.20;;;9.80;80.50;;;;;;5041265;28;20037;-67
2022/04/16 03:27:58;;;;;;;22.60;17.23;;;9.80;80.40;;;;;;5028602;28;20099;-67
2022/04/16 03:30:24;;;;;;;21.42;17.73;;;9.80;80.50;;;;;;5039642;28;20037;-66
2022/04/16 03:32:51;;;;;;;23.73;17.67;;;9.80;80.60;;;;;;5046625;28;20053;-67
2022/04/16 03:35:23;;;;;;;24.77;18.50;;;9.70;80.60;;;;;;5047587;28;20045;-67
2022/04/16 03:37:49;;;;;;;20.52;17.45;;;9.70;80.70;;;;;;5047208;28;20037;-67
2022/04/16 03:40:15;;;;;;;27.90;17.80;;;9.70;80.70;;;;;;5047543;28;20041;-67
2022/04/16 03:42:52;;;;;;;27.23;18.15;;;9.70;80.80;;;;;;5046144;28;20045;-67
2022/04/16 03:45:21;;;;;;;22.88;18.73;;;9.70;80.80;;;;;;5048267;28;20103;-67
2022/04/16 03:47:48;;;;;;;23.35;17.95;;;9.60;80.80;;;;;;5041016;28;20095;-67
2022/04/16 03:50:14;;;;;;;24.25;18.45;;;9.60;80.90;;;;;;5047761;28;20051;-67
2022/04/16 03:52:44;;;;;;;22.60;17.23;;;9.60;81.00;;;;;;5041474;28;20139;-67
2022/04/16 04:00:47;;;;;;;21.75;18.23;;;9.60;81.20;;;;;;5032734;28;20041;-67
2022/04/16 04:03:14;;;;;;;24.48;20.00;;;9.50;81.40;;;;;;5048153;28;20049;-67
2022/04/16 04:05:40;;;;;;;24.55;19.25;;;9.60;81.40;;;;;;5045592;28;20048;-67
2022/04/16 04:08:07;;;;;;;25.60;18.23;;;9.50;81.40;;;;;;5044209;28;20048;-67
2022/04/16 04:10:33;;;;;;;25.73;20.83;;;9.50;81.50;;;;;;5036211;28;20042;-66
2022/04/16 04:12:59;;;;;;;23.52;19.15;;;9.40;81.40;;;;;;5034735;28;20072;-67
2022/04/16 04:15:27;;;;;;;27.20;20.77;;;9.40;81.50;;;;;;5029041;28;20739;-66
2022/04/16 04:17:53;;;;;;;22.63;18.65;;;9.20;81.60;;;;;;5045397;28;20053;-66
2022/04/16 04:20:19;;;;;;;26.77;18.27;;;9.20;81.70;;;;;;5043462;28;20045;-67
2022/04/16 04:22:44;;;;;;;25.10;21.05;;;9.10;81.80;;;;;;5045512;28;20416;-66
2022/04/16 04:25:10;;;;;;;22.77;18.58;;;9.10;81.90;;;;;;5042164;28;20480;-67
2022/04/16 04:27:36;;;;;;;25.95;19.10;;;9.10;82.00;;;;;;5036319;28;20045;-66
2022/04/16 04:30:02;;;;;;;24.17;19.42;;;9.10;82.10;;;;;;5034849;28;20051;-66
2022/04/16 04:32:28;;;;;;;23.83;19.48;;;9.00;82.10;;;;;;5041217;28;20502;-67
2022/04/16 04:34:54;;;;;;;27.88;19.77;;;9.00;82.10;;;;;;5031276;28;20072;-67
2022/04/16 04:37:19;;;;;;;23.58;18.90;;;9.00;82.20;;;;;;5041897;28;20677;-67
2022/04/16 04:39:45;;;;;;;24.85;20.60;;;8.90;82.40;;;;;;5046410;28;20109;-67
2022/04/16 04:42:10;;;;;;;21.02;18.48;;;8.90;82.40;;;;;;5034451;28;20072;-67
2022/04/16 04:44:36;;;;;;;24.35;19.73;;;8.90;82.50;;;;;;5049942;28;20045;-66
2022/04/16 04:47:02;;;;;;;24.40;19.30;;;8.80;82.70;;;;;;5032438;28;20085;-67
2022/04/16 04:49:28;;;;;;;26.40;20.85;;;8.80;82.70;;;;;;5050033;28;20120;-67
2022/04/16 04:51:53;;;;;;;26.63;20.90;;;8.80;83.00;;;;;;5048473;28;20037;-68
2022/04/16 04:54:19;;;;;;;25.90;20.75;;;8.70;83.00;;;;;;5031090;28;20038;-67
2022/04/16 04:56:45;;;;;;;19.50;15.43;;;8.80;83.00;;;;;;5033927;28;20041;-65
2022/04/16 04:59:10;;;;;;;21.55;18.73;;;9.40;87.10;;;;;;5043373;28;20116;-67
2022/04/16 05:01:36;;;;;;;25.45;19.58;;;10.00;86.90;;;;;;5034566;28;20538;-67
2022/04/16 05:04:02;;;;;;;22.70;19.27;;;10.10;85.10;;;;;;5033837;28;20045;-67
2022/04/16 05:06:28;;;;;;;26.95;19.83;;;9.80;83.30;;;;;;5030839;28;20117;-67
2022/04/16 05:08:53;;;;;;;24.35;20.13;;;9.60;82.60;;;;;;5035214;28;20063;-68
2022/04/16 05:11:19;;;;;;;23.95;20.42;;;9.50;82.40;;;;;;5035591;28;20054;-68
2022/04/16 05:13:45;;;;;;;23.88;19.98;;;9.30;82.40;;;;;;5045081;28;20462;-68
2022/04/16 05:16:12;;;;;;;25.23;21.15;;;9.30;82.40;;;;;;5045181;28;20414;-68
2022/04/16 05:18:38;;;;;;;25.50;20.85;;;9.20;82.40;;;;;;5048247;28;20730;-68
2022/04/16 05:21:04;;;;;;;27.20;22.35;;;9.10;82.60;;;;;;5037742;28;20056;-68
2022/04/16 05:23:30;;;;;;;28.48;21.55;;;9.10;82.70;;;;;;5043812;28;20048;-68
2022/04/16 05:25:56;;;;;;;27.77;23.23;;;9.00;82.90;;;;;;5044479;28;20505;-67
2022/04/16 05:28:21;;;;;;;28.63;21.83;;;8.90;82.90;;;;;;5049613;28;20037;-68
2022/04/16 05:30:54;;;;;;;27.52;22.20;;;9.00;83.00;;;;;;5048893;28;20101;-68
2022/04/16 05:36:05;;;;;;;25.85;20.98;;;8.90;83.10;;;;;;5033626;28;20048;-68
2022/04/16 05:38:31;;;;;;;25.63;22.00;;;8.90;83.20;;;;;;5041723;28;20047;-68
2022/04/16 05:40:56;;;;;;;30.58;23.25;;;8.90;83.20;;;;;;5038038;28;20033;-66
2022/04/16 05:43:22;;;;;;;31.02;23.48;;;9.00;83.30;;;;;;5045518;28;20409;-66
2022/04/16 05:45:48;;;;;;;29.60;24.83;;;9.00;83.40;;;;;;5048702;28;20457;-66
2022/04/16 05:48:14;;;;;;;29.50;24.77;;;9.00;83.50;;;;;;5032366;28;20191;-67
2022/04/16 05:50:40;;;;;;;29.45;22.52;;;9.10;83.40;;;;;;5049218;28;20484;-66
2022/04/16 05:53:11;;;;;;;31.35;24.98;;;9.10;83.40;;;;;;5047609;28;20044;-66
2022/04/16 05:55:42;;;;;;;30.45;24.17;;;9.10;83.40;;;;;;5049405;28;20044;-66
2022/04/16 05:58:08;;;;;;;30.77;23.85;;;9.20;83.40;;;;;;5047936;28;20048;-66
2022/04/16 06:00:34;;;;;;;32.03;25.20;;;9.20;83.50;;;;;;5048015;28;20040;-66
2022/04/16 06:03:01;;;;;;;32.05;25.23;;;9.30;83.40;;;;;;5047968;28;20115;-67
2022/04/16 06:05:28;;;;;;;28.80;24.17;;;9.30;83.40;;;;;;5047599;28;20128;-67
2022/04/16 06:07:53;;;;;;;30.20;25.30;;;9.40;83.40;;;;;;5043427;28;20417;-67
2022/04/16 06:10:19;;;;;;;33.35;27.67;;;9.40;83.30;;;;;;5035923;28;20057;-67
2022/04/16 06:12:45;;;;;;;32.75;25.67;;;9.40;83.40;;;;;;5046237;28;20339;-67
2022/04/16 06:15:10;;;;;;;29.58;25.05;;;9.50;83.20;;;;;;5028960;28;20052;-67
2022/04/16 06:17:36;;;;;;;29.17;24.65;;;9.60;83.20;;;;;;5036253;28;20041;-67
2022/04/16 06:20:04;;;;;;;28.17;23.55;;;9.60;83.00;;;;;;5049528;28;20136;-67
2022/04/16 06:22:30;;;;;;;27.17;22.27;;;9.60;83.00;;;;;;5045780;28;20106;-67
2022/04/16 06:24:55;;;;;;;29.80;23.55;;;9.60;82.80;;;;;;5046688;28;20053;-67
2022/04/16 06:27:22;;;;;;;27.92;23.25;;;9.60;82.80;;;;;;5048462;28;20494;-67
2022/04/16 06:29:48;;;;;;;28.17;23.05;;;9.70;82.70;;;;;;5049226;28;20045;-67
2022/04/16 06:32:13;;;;;;;29.38;23.45;;;9.70;82.50;;;;;;5048853;28;20115;-68
2022/04/16 06:34:39;;;;;;;28.67;22.33;;;9.70;82.50;;;;;;5049018;28;20555;-67
2022/04/16 06:37:05;;;;;;;25.75;19.88;;;9.70;82.40;;;;;;5049039;28;20422;-67
2022/04/16 06:39:31;;;;;;;25.25;19.48;;;9.70;82.20;;;;;;5049287;28;20044;-67
2022/04/16 06:41:57;;;;;;;23.70;19.58;;;9.60;81.90;;;;;;5043646;28;20387;-68
2022/04/16 06:44:22;;;;;;;23.95;18.63;;;9.60;81.70;;;;;;5046676;28;20048;-67
2022/04/16 06:46:50;;;;;;;23.67;17.40;;;9.60;81.60;;;;;;5042934;28;20060;-68
2022/04/16 06:49:16;;;;;;;23.10;17.38;;;9.60;81.50;;;;;;5039428;28;20047;-67
2022/04/16 06:51:42;;;;;;;24.10;18.23;;;9.60;81.30;;;;;;5049238;28;20071;-67
2022/04/16 06:54:08;;;;;;;22.65;16.50;;;9.60;81.20;;;;;;5041675;28;20460;-67
2022/04/16 06:56:33;;;;;;;25.90;18.08;;;9.60;81.10;;;;;;5048140;28;20049;-67
2022/04/16 06:59:00;;;;;;;25.13;17.58;;;9.60;81.10;;;;;;5033527;28;20041;-67
2022/04/16 07:01:26;;;;;;;22.40;16.95;;;9.60;81.00;;;;;;5029099;28;20099;-68
2022/04/16 07:03:52;;;;;;;23.40;16.42;;;9.70;80.90;;;;;;5046290;28;20127;-67
2022/04/16 07:06:17;;;;;;;21.27;15.07;;;9.70;80.70;;;;;;5068918;28;20533;-67
2022/04/16 07:08:43;;;;;;;24.65;16.60;;;9.70;80.50;;;;;;5047217;28;20056;-67
2022/04/16 07:11:08;;;;;;;22.35;15.77;;;9.70;80.30;;;;;;5048195;28;20119;-66
2022/04/16 07:13:34;;;;;;;18.75;15.35;;;9.70;80.20;;;;;;5038463;28;20056;-67
2022/04/16 07:16:00;;;;;;;20.27;15.00;;;9.70;80.20;;;;;;5048443;28;20055;-66
2022/04/16 07:18:26;;;;;;;19.85;13.90;;;9.70;80.00;;;;;;5049096;28;20040;-66
2022/04/16 07:20:51;;;;;;;28.80;15.65;;;9.80;79.90;;;;;;5048632;28;20044;-66
2022/04/16 07:23:17;;;;;;;19.30;13.82;;;9.80;79.80;;;;;;5048065;28;20075;-66
2022/04/16 07:25:43;;;;;;;22.33;14.30;;;9.90;79.70;;;;;;5048436;28;20386;-66
2022/04/16 07:28:11;;;;;;;18.48;11.98;;;9.90;79.50;;;;;;5048574;28;20128;-66
2022/04/16 07:30:36;;;;;;;18.63;14.02;;;10.00;79.30;;;;;;5048547;28;20064;-66
2022/04/16 07:33:02;;;;;;;16.48;13.25;;;9.90;78.90;;;;;;5047986;28;20049;-66
2022/04/16 07:35:28;;;;;;;15.68;11.95;;;10.00;78.90;;;;;;5048405;28;20041;-66
2022/04/16 07:37:57;;;;;;;18.48;13.63;;;10.00;78.80;;;;;;5029279;28;20417;-63
2022/04/16 07:40:24;;;;;;;19.38;12.57;;;10.00;78.80;;;;;;5046107;28;20116;-64
2022/04/16 07:42:50;;;;;;;17.90;11.98;;;10.10;78.80;;;;;;5045621;28;20424;-64
2022/04/16 07:45:16;;;;;;;13.95;11.80;;;10.20;78.30;;;;;;5048251;28;20116;-64
2022/04/16 07:47:42;;;;;;;16.88;11.95;;;10.20;78.20;;;;;;5047573;28;20037;-65
2022/04/16 07:50:08;;;;;;;16.65;12.15;;;10.30;78.10;;;;;;5048509;28;20041;-64
2022/04/16 07:52:34;;;;;;;20.20;12.88;;;10.30;77.90;;;;;;5048372;28;20057;-64
2022/04/16 07:55:00;;;;;;;17.48;11.85;;;10.30;77.90;;;;;;5048611;28;20055;-66
2022/04/16 07:57:25;;;;;;;17.85;12.52;;;10.40;77.90;;;;;;5048355;28;20055;-65
2022/04/16 07:59:53;;;;;;;19.10;12.65;;;10.50;77.90;;;;;;5049996;28;20457;-66
2022/04/16 08:02:20;;;;;;;18.40;12.18;;;10.50;77.60;;;;;;5050576;28;20134;-65
2022/04/16 08:04:45;;;;;;;17.48;12.13;;;10.60;77.70;;;;;;5051121;28;20290;-65
2022/04/16 08:07:11;;;;;;;19.30;11.75;;;10.60;77.40;;;;;;5050957;28;20523;-65
2022/04/16 08:09:37;;;;;;;17.15;11.77;;;10.60;77.40;;;;;;5050780;28;20401;-66
2022/04/16 08:12:03;;;;;;;17.20;11.65;;;10.70;77.30;;;;;;5049460;28;20513;-65
2022/04/16 08:14:28;;;;;;;15.25;12.40;;;10.70;77.10;;;;;;5050259;28;21477;-65
2022/04/16 08:16:55;;;;;;;16.77;11.30;;;10.80;77.00;;;;;;5050323;28;20095;-65
2022/04/16 08:19:20;;;;;;;15.90;11.88;;;10.80;76.80;;;;;;5051255;28;20460;-68
2022/04/16 08:21:46;;;;;;;15.60;11.25;;;10.90;76.80;;;;;;5050931;28;20147;-66
2022/04/16 08:24:28;;;;;;;14.13;10.55;;;11.00;76.90;;;;;;5049914;28;20106;-66
2022/04/16 08:26:53;;;;;;;15.68;10.48;;;11.10;76.60;;;;;;5049959;28;20096;-66
2022/04/16 08:29:19;;;;;;;15.98;12.13;;;11.10;76.30;;;;;;5048693;28;20080;-65
2022/04/16 08:31:45;;;;;;;16.10;11.23;;;11.10;76.00;;;;;;5043044;28;20037;-65
2022/04/16 08:34:10;;;;;;;15.48;11.38;;;11.10;75.90;;;;;;5050839;28;20045;-71
2022/04/16 08:36:36;;;;;;;15.63;11.60;;;11.20;75.80;;;;;;5048346;28;20064;-65
2022/04/16 08:39:03;;;;;;;15.80;10.50;;;11.50;77.70;;;;;;5049270;28;20045;-65
2022/04/16 08:41:31;;;;;;;16.27;9.13;;;11.50;76.20;;;;;;5049897;28;20041;-65
2022/04/16 08:43:57;;;;;;;19.27;11.25;;;11.60;75.70;;;;;;5050689;28;20088;-64
2022/04/16 08:46:26;;;;;;;14.90;9.50;;;11.60;75.30;;;;;;5042531;28;20045;-65
2022/04/16 08:48:52;;;;;;;15.80;9.88;;;11.60;75.00;;;;;;5050630;28;20047;-65
2022/04/16 08:51:19;;;;;;;16.23;9.68;;;11.60;74.60;;;;;;5048510;28;20494;-65
2022/04/16 08:53:44;;;;;;;13.50;9.25;;;11.60;74.20;;;;;;5048330;28;20045;-65
2022/04/16 08:56:10;;;;;;;13.35;9.45;;;11.60;74.10;;;;;;5049670;28;20556;-65
2022/04/16 08:58:36;;;;;;;13.25;8.30;;;11.70;74.00;;;;;;5050195;28;20478;-65
2022/04/16 09:01:01;;;;;;;12.88;9.40;;;11.70;73.00;;;;;;5048741;28;20037;-67
2022/04/16 09:03:34;;;;;;;13.32;9.07;;;11.80;73.30;;;;;;5048063;28;20137;-66
2022/04/16 09:06:00;;;;;;;14.40;9.50;;;11.80;73.20;;;;;;5064540;28;20108;-66
2022/04/16 09:08:30;;;;;;;14.73;9.18;;;11.90;73.20;;;;;;5050204;28;20043;-66
2022/04/16 09:11:07;;;;;;;13.27;9.48;;;11.90;72.70;;;;;;5049663;28;20048;-66
2022/04/16 09:13:33;;;;;;;11.88;8.30;;;12.10;72.80;;;;;;5050839;28;20493;-67
2022/04/16 09:16:06;;;;;;;13.75;8.90;;;12.10;72.90;;;;;;5045701;28;20123;-67
2022/04/16 09:18:51;;;;;;;13.85;9.02;;;12.20;72.40;;;;;;5033498;28;20132;-66
2022/04/16 09:21:18;;;;;;;16.42;8.43;;;12.20;71.90;;;;;;5041560;28;20049;-67
2022/04/16 09:23:50;;;;;;;11.73;8.00;;;12.20;72.00;;;;;;5048445;28;20171;-66
2022/04/16 09:26:25;;;;;;;;;;;12.30;71.40;;;;;;5050054;28;20557;-66
2022/04/16 09:28:51;;;;;;;9.50;7.15;;;12.30;71.00;;;;;;5049621;28;20011;-66
2022/04/16 09:31:17;;;;;;;11.35;7.80;;;12.30;71.40;;;;;;5047000;28;20140;-66
2022/04/16 09:33:44;;;;;;;11.57;7.63;;;12.50;71.00;;;;;;5049730;28;20044;-66
2022/04/16 09:36:10;;;;;;;10.50;7.18;;;12.60;70.80;;;;;;5049175;28;20410;-67
2022/04/16 09:38:40;;;;;;;9.23;6.85;;;12.60;70.50;;;;;;5050135;28;20048;-66
2022/04/16 09:41:08;;;;;;;11.05;7.15;;;12.70;70.30;;;;;;5038001;28;20072;-66
2022/04/16 09:43:37;;;;;;;9.52;5.78;;;12.70;70.10;;;;;;5030353;28;20045;-66
2022/04/16 09:46:11;;;;;;;10.18;6.13;;;12.80;69.20;;;;;;5040928;28;20048;-66
2022/04/16 09:48:37;;;;;;;8.60;5.35;;;12.90;68.90;;;;;;5039023;28;20110;-67
2022/04/16 09:51:05;;;;;;;7.85;5.15;;;12.90;67.80;;;;;;5037506;28;20056;-66
2022/04/16 09:53:31;;;;;;;8.07;5.20;;;12.90;67.90;;;;;;5030344;28;20080;-66
2022/04/16 09:55:59;;;;;;;6.78;4.70;;;13.00;67.70;;;;;;5045806;28;20584;-66
2022/04/16 09:58:36;;;;;;;7.85;5.43;;;13.00;67.70;;;;;;5045467;28;20049;-65
2022/04/16 10:01:01;;;;;;;6.38;4.65;;;13.10;67.40;;;;;;5034000;28;20120;-66
2022/04/16 10:03:29;;;;;;;7.03;4.80;;;13.10;67.00;;;;;;5041206;28;20136;-64
2022/04/16 10:05:58;;;;;;;6.28;4.38;;;13.10;66.70;;;;;;5035229;28;20040;-65
2022/04/16 10:08:25;;;;;;;6.40;3.92;;;13.20;66.30;;;;;;5046251;28;20564;-65
2022/04/16 10:10:55;;;;;;;6.57;4.00;;;13.20;65.90;;;;;;5047417;28;20049;-65
2022/04/16 10:13:22;;;;;;;5.47;3.92;;;13.30;65.40;;;;;;5047086;28;20055;-65
2022/04/16 10:16:05;;;;;;;8.15;4.00;;;13.30;64.80;;;;;;5047190;28;20048;-61
2022/04/16 10:18:33;;;;;;;5.53;3.30;;;13.60;68.80;;;;;;5045784;28;20091;-65
2022/04/16 10:21:01;;;;;;;5.90;3.78;;;13.70;67.40;;;;;;5046425;28;20506;-65
2022/04/16 10:23:46;;;;;;;6.82;4.22;;;13.80;65.20;;;;;;5051306;28;20053;-64
2022/04/16 10:26:13;;;;;;;5.22;2.80;;;13.90;64.00;;;;;;5047844;28;20114;-64
2022/04/16 10:28:57;;;;;;;5.47;3.03;;;13.80;63.40;;;;;;5047749;28;20136;-64
2022/04/16 10:31:30;;;;;;;3.72;2.47;;;13.80;63.20;;;;;;5047863;28;20041;-64
2022/04/16 10:34:02;;;;;;;3.97;1.92;;;13.80;62.40;;;;;;5046936;28;20041;-64
2022/04/16 10:36:41;;;;;;;4.13;2.88;;;13.80;61.80;;;;;;5047315;28;20062;-65
2022/04/16 10:39:24;;;;;;;3.30;2.08;;;13.90;60.90;;;;;;5045614;28;20130;-64
2022/04/16 10:41:57;;;;;;;3.80;2.42;;;13.90;60.50;;;;;;5046354;28;20512;-65
2022/04/16 10:44:24;;;;;;;3.38;1.90;;;13.90;60.70;;;;;;5046824;28;20090;-64
2022/04/16 10:46:51;;;;;;;3.30;1.80;;;13.90;60.30;;;;;;5044777;28;20258;-65
2022/04/16 10:49:19;;;;;;;2.30;1.70;;;14.00;60.40;;;;;;5047136;28;20128;-64
2022/04/16 10:51:45;;;;;;;3.50;2.10;;;14.10;60.50;;;;;;5046635;28;20037;-64
2022/04/16 10:54:13;;;;;;;4.00;2.03;;;14.10;60.10;;;;;;5043445;28;20474;-64
2022/04/16 10:56:44;;;;;;;3.25;1.50;;;14.20;59.70;;;;;;5045703;28;20041;-64
2022/04/16 10:59:10;;;;;;;3.20;1.80;;;14.20;59.30;;;;;;5046842;28;20053;-65
2022/04/16 11:01:37;;;;;;;3.05;1.80;;;14.20;59.00;;;;;;5045303;28;20075;-65
2022/04/16 11:04:15;;;;;;;3.45;1.77;;;14.40;58.60;;;;;;5047387;28;20581;-65
2022/04/16 11:06:45;;;;;;;3.35;2.08;;;14.50;58.10;;;;;;5046820;28;20509;-65
2022/04/16 11:09:13;;;;;;;2.45;1.48;;;14.50;58.50;;;;;;5047359;28;20053;-66
2022/04/16 11:11:41;;;;;;;2.85;1.50;;;14.50;58.30;;;;;;5045992;28;20057;-66
2022/04/16 11:14:09;;;;;;;2.40;1.20;;;14.60;57.70;;;;;;5047274;28;20110;-65
2022/04/16 11:16:43;;;;;;;2.35;1.38;;;14.60;57.00;;;;;;5047133;28;20095;-65
2022/04/16 11:19:16;;;;;;;4.78;1.73;;;14.70;56.50;;;;;;5046429;28;20385;-66
2022/04/16 11:21:43;;;;;;;2.58;1.33;;;14.80;56.20;;;;;;5046641;28;20051;-68
2022/04/16 11:24:10;;;;;;;2.28;1.10;;;14.80;56.40;;;;;;5042631;28;20045;-65
2022/04/16 11:34:52;;;;;;;2.88;1.42;;;15.00;54.50;;;;;;5052121;28;21069;-65
2022/04/16 11:37:18;;;;;;;2.47;1.27;;;15.00;54.50;;;;;;5050518;28;20041;-65
2022/04/16 11:39:46;;;;;;;2.30;1.25;;;15.00;53.90;;;;;;5050863;28;20033;-64
2022/04/16 11:42:12;;;;;;;1.77;1.20;;;15.10;53.40;;;;;;5039947;28;20072;-65
2022/04/16 11:44:40;;;;;;;2.65;1.45;;;15.10;53.50;;;;;;5032617;28;20494;-65
2022/04/16 11:47:08;;;;;;;2.45;1.25;;;15.10;53.20;;;;;;5038882;28;20409;-66
2022/04/16 11:49:35;;;;;;;3.25;1.23;;;15.10;52.70;;;;;;5051214;28;20472;-66
2022/04/16 11:52:01;;;;;;;2.88;1.38;;;15.20;52.90;;;;;;5051028;28;20052;-66
2022/04/16 11:54:28;;;;;;;5.38;1.77;;;15.20;52.70;;;;;;5051335;28;20386;-65
2022/04/16 11:56:55;;;;;;;1.95;0.93;;;15.30;52.80;;;;;;5047847;28;20075;-65
2022/04/16 11:59:24;;;;;;;2.58;1.20;;;15.30;52.40;;;;;;5049643;28;20044;-66
2022/04/16 12:02:05;;;;;;;2.67;1.33;;;15.40;51.70;;;;;;5050389;28;20485;-65
2022/04/16 12:04:43;;;;;;;1.40;0.90;;;15.50;51.30;;;;;;5051341;28;20146;-65
2022/04/16 12:07:10;;;;;;;2.53;0.80;;;15.60;50.80;;;;;;5046205;28;20041;-65
2022/04/16 12:09:35;;;;;;;3.33;1.40;;;15.60;51.00;;;;;;5047757;28;20037;-65
2022/04/16 12:12:05;;;;;;;5.13;1.00;;;15.60;50.80;;;;;;5048544;28;20525;-65
2022/04/16 12:14:31;;;;;;;1.55;0.80;;;15.60;50.60;;;;;;5050214;28;20048;-65
2022/04/16 12:17:00;;;;;;;1.83;1.02;;;15.80;50.50;;;;;;5049236;28;20041;-65
2022/04/16 12:19:36;;;;;;;2.45;1.10;;;15.90;50.40;;;;;;5047930;28;20385;-65
2022/04/16 12:22:01;;;;;;;2.70;1.25;;;16.00;49.00;;;;;;5047771;28;20049;-65
2022/04/16 12:24:28;;;;;;;2.42;0.95;;;16.00;49.50;;;;;;5061044;28;20067;-65
2022/04/16 12:26:56;;;;;;;2.08;1.00;;;16.10;49.80;;;;;;5051710;28;20091;-64
2022/04/16 12:29:30;;;;;;;1.60;0.93;;;16.20;48.70;;;;;;5050748;28;20116;-65
2022/04/16 12:31:59;;;;;;;1.98;1.10;;;16.20;47.70;;;;;;5034387;28;20049;-65
2022/04/16 12:34:27;;;;;;;1.67;1.23;;;16.20;47.80;;;;;;5055861;28;20048;-64
2022/04/16 12:36:53;;;;;;;2.25;1.20;;;16.30;47.50;;;;;;5048475;28;20128;-68
2022/04/16 12:39:20;;;;;;;6.88;1.20;;;16.30;47.10;;;;;;5050180;28;20552;-64
2022/04/16 12:41:45;;;;;;;2.80;1.20;;;16.30;47.10;;;;;;5047672;28;20413;-65
2022/04/16 12:44:11;;;;;;;2.20;1.17;;;16.40;46.30;;;;;;5050588;28;20041;-65
2022/04/16 12:46:37;;;;;;;1.95;1.00;;;16.40;46.10;;;;;;5050637;28;20045;-64
2022/04/16 12:49:02;;;;;;;3.28;1.08;;;16.50;45.10;;;;;;5050082;28;20041;-66
2022/04/16 12:51:28;;;;;;;2.20;0.90;;;16.50;44.20;;;;;;5053788;28;20057;-66
2022/04/16 12:53:54;;;;;;;2.40;1.00;;;16.50;43.70;;;;;;5050434;28;20436;-65
2022/04/16 12:56:19;;;;;;;4.40;0.85;;;16.50;43.60;;;;;;5057843;28;20071;-65
2022/04/16 12:58:45;;;;;;;1.60;1.00;;;16.60;43.40;;;;;;5057989;28;20044;-66
2022/04/16 13:01:11;;;;;;;1.70;0.85;;;16.60;42.80;;;;;;5054327;28;20098;-66